sensor_id;sensor_type;location;lat;lon;timestamp;pressure;altitude;pressure_sealevel;temperature;humidity
48390;BME280;34643;47.964;7.982;2022-11-18T00:02:14;94901.69;;;17.53;67.35
48390;BME280;34643;47.964;7.982;2022-11-18T00:07:14;94913.91;;;17.52;67.69
48390;BME280;34643;47.964;7.982;2022-11-18T00:12:14;94911.47;;;17.51;67.60
48390;BME280;34643;47.964;7.982;2022-11-18T00:17:33;94933.78;;;17.53;67.55
48390;BME280;34643;47.964;7.982;2022-11-18T00:22:34;94941.63;;;17.53;67.91
48390;BME280;34643;47.964;7.982;2022-11-18T00:27:34;94941.63;;;17.53;67.79
48390;BME280;34643;47.964;7.982;2022-11-18T00:32:34;94938.22;;;17.53;67.60
48390;BME280;34643;47.964;7.982;2022-11-18T00:37:34;94947.69;;;17.54;67.82
48390;BME280;34643;47.964;7.982;2022-11-18T00:42:35;94951.09;;;17.54;67.63
48390;BME280;34643;47.964;7.982;2022-11-18T00:47:50;94952.06;;;17.53;67.91
48390;BME280;34643;47.964;7.982;2022-11-18T00:52:50;94952.91;;;17.54;67.85
48390;BME280;34643;47.964;7.982;2022-11-18T00:57:52;94955.34;;;17.55;67.99
48390;BME280;34643;47.964;7.982;2022-11-18T01:02:52;94963.19;;;17.55;67.97
48390;BME280;34643;47.964;7.982;2022-11-18T01:07:52;94981.25;;;17.57;67.80
48390;BME280;34643;47.964;7.982;2022-11-18T01:12:53;94989.06;;;17.57;67.95
48390;BME280;34643;47.964;7.982;2022-11-18T01:18:12;94990.88;;;17.56;68.04
48390;BME280;34643;47.964;7.982;2022-11-18T01:23:12;95004.91;;;17.55;67.99
48390;BME280;34643;47.964;7.982;2022-11-18T01:28:13;95010.28;;;17.54;67.91
48390;BME280;34643;47.964;7.982;2022-11-18T01:33:15;95018.91;;;17.54;68.15
48390;BME280;34643;47.964;7.982;2022-11-18T01:38:15;95032.78;;;17.55;67.94
48390;BME280;34643;47.964;7.982;2022-11-18T01:43:16;95037.19;;;17.54;67.78
48390;BME280;34643;47.964;7.982;2022-11-18T01:48:22;95031.16;;;17.54;68.16
48390;BME280;34643;47.964;7.982;2022-11-18T01:53:25;95039.94;;;17.53;67.97
48390;BME280;34643;47.964;7.982;2022-11-18T01:58:28;95032.78;;;17.55;67.96
48390;BME280;34643;47.964;7.982;2022-11-18T02:03:29;95045.97;;;17.53;67.91
48390;BME280;34643;47.964;7.982;2022-11-18T02:08:31;95055.59;;;17.53;67.96
48390;BME280;34643;47.964;7.982;2022-11-18T02:13:31;95061.63;;;17.53;67.87
48390;BME280;34643;47.964;7.982;2022-11-18T02:18:47;95070.44;;;17.52;67.83
48390;BME280;34643;47.964;7.982;2022-11-18T02:24:05;95081.69;;;17.53;67.77
48390;BME280;34643;47.964;7.982;2022-11-18T02:29:28;95096.53;;;17.52;67.77
48390;BME280;34643;47.964;7.982;2022-11-18T02:34:32;95105.97;;;17.53;68.06
48390;BME280;34643;47.964;7.982;2022-11-18T02:40:18;95120.97;;;17.51;68.11
48390;BME280;34643;47.964;7.982;2022-11-18T02:44:59;95127.81;;;17.52;68.09
48390;BME280;34643;47.964;7.982;2022-11-18T02:50:02;95121.09;;;17.49;67.92
48390;BME280;34643;47.964;7.982;2022-11-18T02:55:04;95114.13;;;17.50;67.58
48390;BME280;34643;47.964;7.982;2022-11-18T03:00:06;95114.78;;;17.52;68.26
48390;BME280;34643;47.964;7.982;2022-11-18T03:05:08;95121.63;;;17.53;68.21
48390;BME280;34643;47.964;7.982;2022-11-18T03:10:09;95124.22;;;17.53;67.96
48390;BME280;34643;47.964;7.982;2022-11-18T03:30:35;95148.69;;;17.52;67.77
48390;BME280;34643;47.964;7.982;2022-11-18T03:35:38;95163.34;;;17.53;67.70
48390;BME280;34643;47.964;7.982;2022-11-18T03:40:40;95160.09;;;17.51;67.87
48390;BME280;34643;47.964;7.982;2022-11-18T03:45:43;95167.09;;;17.51;67.70
48390;BME280;34643;47.964;7.982;2022-11-18T03:50:46;95151.44;;;17.51;67.97
48390;BME280;34643;47.964;7.982;2022-11-18T03:55:53;95164.34;;;17.52;67.83
48390;BME280;34643;47.964;7.982;2022-11-18T04:00:56;95174.94;;;17.51;67.88
48390;BME280;34643;47.964;7.982;2022-11-18T04:06:02;95177.53;;;17.51;68.08
48390;BME280;34643;47.964;7.982;2022-11-18T04:11:12;95182.75;;;17.51;67.96
48390;BME280;34643;47.964;7.982;2022-11-18T04:16:38;95187.97;;;17.51;67.85
48390;BME280;34643;47.964;7.982;2022-11-18T04:21:38;95195.66;;;17.52;68.00
48390;BME280;34643;47.964;7.982;2022-11-18T04:26:38;95193.03;;;17.52;67.95
48390;BME280;34643;47.964;7.982;2022-11-18T04:31:39;95193.84;;;17.53;67.80
48390;BME280;34643;47.964;7.982;2022-11-18T04:36:39;95198.75;;;17.56;67.58
48390;BME280;34643;47.964;7.982;2022-11-18T04:41:39;95208.72;;;17.60;67.67
48390;BME280;34643;47.964;7.982;2022-11-18T04:46:55;95207.31;;;17.66;67.43
48390;BME280;34643;47.964;7.982;2022-11-18T04:51:56;95203.56;;;17.68;67.46
48390;BME280;34643;47.964;7.982;2022-11-18T04:56:57;95203.41;;;17.70;67.48
48390;BME280;34643;47.964;7.982;2022-11-18T05:01:57;95204.06;;;17.72;67.76
48390;BME280;34643;47.964;7.982;2022-11-18T05:07:01;95216.81;;;17.75;67.50
48390;BME280;34643;47.964;7.982;2022-11-18T05:12:01;95225.31;;;17.77;67.85
48390;BME280;34643;47.964;7.982;2022-11-18T05:17:20;95232.19;;;17.78;67.52
48390;BME280;34643;47.964;7.982;2022-11-18T05:22:21;95252.06;;;17.79;67.81
48390;BME280;34643;47.964;7.982;2022-11-18T05:27:21;95262.19;;;18.00;67.54
48390;BME280;34643;47.964;7.982;2022-11-18T05:32:21;95265.75;;;17.99;68.25
48390;BME280;34643;47.964;7.982;2022-11-18T05:37:22;95275.59;;;18.05;68.15
48390;BME280;34643;47.964;7.982;2022-11-18T05:42:22;95273.63;;;16.18;59.21
48390;BME280;34643;47.964;7.982;2022-11-18T05:47:41;95286.28;;;16.03;59.71
48390;BME280;34643;47.964;7.982;2022-11-18T05:52:59;95298.56;;;15.34;56.44
48390;BME280;34643;47.964;7.982;2022-11-18T05:58:00;95305.91;;;15.68;58.06
48390;BME280;34643;47.964;7.982;2022-11-18T06:03:00;95305.28;;;16.79;60.26
48390;BME280;34643;47.964;7.982;2022-11-18T06:08:01;95313.78;;;17.08;60.67
48390;BME280;34643;47.964;7.982;2022-11-18T06:13:03;95324.16;;;17.18;60.58
48390;BME280;34643;47.964;7.982;2022-11-18T06:18:06;95317.81;;;17.21;61.44
48390;BME280;34643;47.964;7.982;2022-11-18T06:23:07;95327.13;;;17.23;61.54
48390;BME280;34643;47.964;7.982;2022-11-18T06:28:07;95337.25;;;17.26;62.12
48390;BME280;34643;47.964;7.982;2022-11-18T06:33:09;95349.31;;;17.27;62.15
48390;BME280;34643;47.964;7.982;2022-11-18T06:38:10;95347.66;;;17.26;62.67
48390;BME280;34643;47.964;7.982;2022-11-18T06:43:10;95354.53;;;17.27;62.74
48390;BME280;34643;47.964;7.982;2022-11-18T06:48:30;95363.03;;;17.29;62.94
48390;BME280;34643;47.964;7.982;2022-11-18T06:53:30;95360.56;;;17.28;62.97
48390;BME280;34643;47.964;7.982;2022-11-18T06:58:31;95373.59;;;17.28;62.94
48390;BME280;34643;47.964;7.982;2022-11-18T07:03:31;95378.97;;;17.26;63.22
48390;BME280;34643;47.964;7.982;2022-11-18T07:08:33;95382.56;;;17.25;63.07
48390;BME280;34643;47.964;7.982;2022-11-18T07:13:34;95387.78;;;17.25;63.16
48390;BME280;34643;47.964;7.982;2022-11-18T07:18:34;95391.34;;;17.24;63.42
48390;BME280;34643;47.964;7.982;2022-11-18T07:23:36;95400.94;;;17.24;63.55
48390;BME280;34643;47.964;7.982;2022-11-18T07:28:36;95404.50;;;17.23;63.50
48390;BME280;34643;47.964;7.982;2022-11-18T07:33:37;95414.13;;;17.22;63.71
48390;BME280;34643;47.964;7.982;2022-11-18T07:38:38;95421.94;;;17.22;63.64
48390;BME280;34643;47.964;7.982;2022-11-18T07:43:39;95435.94;;;17.21;63.63
48390;BME280;34643;47.964;7.982;2022-11-18T07:48:41;95434.47;;;17.19;63.76
48390;BME280;34643;47.964;7.982;2022-11-18T07:53:42;95433.78;;;17.17;63.96
48390;BME280;34643;47.964;7.982;2022-11-18T07:58:42;95447.78;;;17.16;63.78
48390;BME280;34643;47.964;7.982;2022-11-18T08:03:43;95451.22;;;17.16;63.93
48390;BME280;34643;47.964;7.982;2022-11-18T08:08:44;95457.41;;;17.15;63.93
48390;BME280;34643;47.964;7.982;2022-11-18T08:13:44;95462.75;;;17.14;63.92
48390;BME280;34643;47.964;7.982;2022-11-18T08:18:45;95480.19;;;17.13;63.86
48390;BME280;34643;47.964;7.982;2022-11-18T08:23:53;95471.69;;;17.11;64.04
48390;BME280;34643;47.964;7.982;2022-11-18T08:28:53;95478.69;;;17.10;64.15
48390;BME280;34643;47.964;7.982;2022-11-18T08:33:54;95485.00;;;17.08;63.94
48390;BME280;34643;47.964;7.982;2022-11-18T08:38:55;95486.81;;;17.07;63.82
48390;BME280;34643;47.964;7.982;2022-11-18T08:43:56;95486.94;;;17.06;64.09
48390;BME280;34643;47.964;7.982;2022-11-18T08:48:56;95495.72;;;17.05;64.12
48390;BME280;34643;47.964;7.982;2022-11-18T08:53:57;95508.91;;;17.03;63.99
48390;BME280;34643;47.964;7.982;2022-11-18T08:58:57;95509.88;;;17.02;64.19
48390;BME280;34643;47.964;7.982;2022-11-18T09:03:57;95505.63;;;17.01;63.91
48390;BME280;34643;47.964;7.982;2022-11-18T09:08:58;95513.44;;;17.01;64.14
48390;BME280;34643;47.964;7.982;2022-11-18T09:13:58;95522.38;;;16.99;64.02
48390;BME280;34643;47.964;7.982;2022-11-18T09:18:59;95511.94;;;16.99;64.13
48390;BME280;34643;47.964;7.982;2022-11-18T09:24:01;95518.91;;;16.98;64.18
48390;BME280;34643;47.964;7.982;2022-11-18T09:29:02;95533.88;;;16.96;64.24
48390;BME280;34643;47.964;7.982;2022-11-18T09:34:02;95530.59;;;16.94;64.19
48390;BME280;34643;47.964;7.982;2022-11-18T09:39:03;95536.63;;;16.95;64.06
48390;BME280;34643;47.964;7.982;2022-11-18T09:44:09;95552.28;;;16.95;63.98
48390;BME280;34643;47.964;7.982;2022-11-18T09:49:24;95559.41;;;16.92;63.98
48390;BME280;34643;47.964;7.982;2022-11-18T09:54:26;95568.22;;;16.91;64.00
48390;BME280;34643;47.964;7.982;2022-11-18T09:59:30;95578.63;;;16.91;64.20
48390;BME280;34643;47.964;7.982;2022-11-18T10:04:30;95584.13;;;16.88;64.17
48390;BME280;34643;47.964;7.982;2022-11-18T10:09:35;95587.53;;;16.89;63.97
48390;BME280;34643;47.964;7.982;2022-11-18T10:14:50;95589.34;;;16.88;63.97
48390;BME280;34643;47.964;7.982;2022-11-18T10:24:55;95603.31;;;16.87;64.04
48390;BME280;34643;47.964;7.982;2022-11-18T10:29:56;95592.88;;;16.87;64.24
48390;BME280;34643;47.964;7.982;2022-11-18T10:34:57;95593.72;;;16.88;64.12
48390;BME280;34643;47.964;7.982;2022-11-18T10:39:59;95592.88;;;16.87;64.22
48390;BME280;34643;47.964;7.982;2022-11-18T10:45:32;95597.28;;;16.87;63.90
48390;BME280;34643;47.964;7.982;2022-11-18T10:50:33;95600.03;;;16.85;64.21
48390;BME280;34643;47.964;7.982;2022-11-18T10:55:34;95605.25;;;16.85;63.98
48390;BME280;34643;47.964;7.982;2022-11-18T11:05:36;95604.66;;;16.82;64.23
48390;BME280;34643;47.964;7.982;2022-11-18T11:10:36;95601.97;;;16.83;64.19
48390;BME280;34643;47.964;7.982;2022-11-18T11:20:37;95598.66;;;16.81;64.15
48390;BME280;34643;47.964;7.982;2022-11-18T11:25:59;95598.66;;;16.81;64.05
48390;BME280;34643;47.964;7.982;2022-11-18T11:31:19;95602.19;;;16.80;63.97
48390;BME280;34643;47.964;7.982;2022-11-18T11:36:24;95604.81;;;16.80;64.16
48390;BME280;34643;47.964;7.982;2022-11-18T11:51:32;95612.25;;;16.85;63.94
48390;BME280;34643;47.964;7.982;2022-11-18T12:01:51;95608.25;;;17.00;63.58
48390;BME280;34643;47.964;7.982;2022-11-18T12:06:53;95616.19;;;17.08;63.64
48390;BME280;34643;47.964;7.982;2022-11-18T12:11:57;95619.72;;;17.17;63.38
48390;BME280;34643;47.964;7.982;2022-11-18T12:17:06;95621.78;;;17.23;63.27
48390;BME280;34643;47.964;7.982;2022-11-18T12:22:11;95626.44;;;17.29;63.43
48390;BME280;34643;47.964;7.982;2022-11-18T12:42:34;95628.75;;;17.33;63.52
48390;BME280;34643;47.964;7.982;2022-11-18T12:52:54;95630.38;;;17.34;63.69
48390;BME280;34643;47.964;7.982;2022-11-18T12:57:54;95627.78;;;17.34;63.90
48390;BME280;34643;47.964;7.982;2022-11-18T13:02:58;95627.94;;;17.32;63.81
48390;BME280;34643;47.964;7.982;2022-11-18T13:08:04;95622.44;;;17.35;63.91
48390;BME280;34643;47.964;7.982;2022-11-18T13:13:22;95630.66;;;17.40;63.68
48390;BME280;34643;47.964;7.982;2022-11-18T13:18:24;95630.66;;;17.40;63.68
48390;BME280;34643;47.964;7.982;2022-11-18T13:23:25;95627.91;;;17.42;63.78
48390;BME280;34643;47.964;7.982;2022-11-18T13:33:54;95634.47;;;17.46;63.84
48390;BME280;34643;47.964;7.982;2022-11-18T13:38:55;95632.00;;;17.44;63.71
48390;BME280;34643;47.964;7.982;2022-11-18T13:43:55;95630.25;;;17.45;63.80
48390;BME280;34643;47.964;7.982;2022-11-18T13:48:56;95627.63;;;17.45;63.69
48390;BME280;34643;47.964;7.982;2022-11-18T13:53:57;95633.78;;;17.44;63.92
48390;BME280;34643;47.964;7.982;2022-11-18T13:58:58;95632.00;;;17.44;63.77
48390;BME280;34643;47.964;7.982;2022-11-18T14:04:06;95639.56;;;17.47;64.00
48390;BME280;34643;47.964;7.982;2022-11-18T14:09:25;95637.75;;;17.48;63.78
48390;BME280;34643;47.964;7.982;2022-11-18T14:14:27;95644.75;;;17.47;63.77
48390;BME280;34643;47.964;7.982;2022-11-18T14:19:28;95640.38;;;17.48;63.71
48390;BME280;34643;47.964;7.982;2022-11-18T14:24:29;95647.50;;;17.46;63.94
48390;BME280;34643;47.964;7.982;2022-11-18T14:29:30;95650.97;;;17.46;63.97
48390;BME280;34643;47.964;7.982;2022-11-18T14:34:30;95643.94;;;17.47;64.04
48390;BME280;34643;47.964;7.982;2022-11-18T14:39:30;95663.69;;;17.49;63.84
48390;BME280;34643;47.964;7.982;2022-11-18T14:44:31;95664.56;;;17.50;63.63
48390;BME280;34643;47.964;7.982;2022-11-18T14:49:32;95671.66;;;17.48;63.77
48390;BME280;34643;47.964;7.982;2022-11-18T14:54:33;95670.72;;;17.49;63.88
48390;BME280;34643;47.964;7.982;2022-11-18T14:59:33;95678.69;;;17.47;64.06
48390;BME280;34643;47.964;7.982;2022-11-18T15:04:33;95673.59;;;17.46;63.78
48390;BME280;34643;47.964;7.982;2022-11-18T15:09:33;95677.19;;;17.45;63.99
48390;BME280;34643;47.964;7.982;2022-11-18T15:14:34;95685.69;;;17.47;63.90
48390;BME280;34643;47.964;7.982;2022-11-18T15:19:34;95683.22;;;17.45;63.91
48390;BME280;34643;47.964;7.982;2022-11-18T15:24:36;95690.22;;;17.45;63.97
48390;BME280;34643;47.964;7.982;2022-11-18T15:29:36;95692.00;;;17.44;63.96
48390;BME280;34643;47.964;7.982;2022-11-18T15:34:36;95692.97;;;17.43;64.22
48390;BME280;34643;47.964;7.982;2022-11-18T15:39:37;95692.16;;;17.43;63.88
48390;BME280;34643;47.964;7.982;2022-11-18T15:44:37;95689.56;;;17.43;63.84
48390;BME280;34643;47.964;7.982;2022-11-18T15:49:37;95700.13;;;17.41;63.84
48390;BME280;34643;47.964;7.982;2022-11-18T15:54:42;95702.72;;;17.41;64.11
48390;BME280;34643;47.964;7.982;2022-11-18T15:59:43;95704.66;;;17.39;64.01
48390;BME280;34643;47.964;7.982;2022-11-18T16:04:43;95711.66;;;17.39;63.90
48390;BME280;34643;47.964;7.982;2022-11-18T16:09:44;95724.00;;;17.37;63.94
48390;BME280;34643;47.964;7.982;2022-11-18T16:15:03;95727.59;;;17.36;63.95
48390;BME280;34643;47.964;7.982;2022-11-18T16:20:21;95727.88;;;17.33;64.08
48390;BME280;34643;47.964;7.982;2022-11-18T16:25:22;95736.66;;;17.32;63.97
48390;BME280;34643;47.964;7.982;2022-11-18T16:30:23;95731.56;;;17.30;63.86
48390;BME280;34643;47.964;7.982;2022-11-18T16:35:45;95735.28;;;17.27;64.00
48390;BME280;34643;47.964;7.982;2022-11-18T16:40:46;95731.00;;;17.26;63.79
48390;BME280;34643;47.964;7.982;2022-11-18T16:45:50;95744.06;;;17.26;64.11
48390;BME280;34643;47.964;7.982;2022-11-18T16:50:55;95748.72;;;17.23;63.85
48390;BME280;34643;47.964;7.982;2022-11-18T16:56:01;95747.91;;;17.22;63.95
48390;BME280;34643;47.964;7.982;2022-11-18T17:01:11;95746.25;;;17.21;63.97
48390;BME280;34643;47.964;7.982;2022-11-18T17:06:11;95749.84;;;17.20;63.91
48390;BME280;34643;47.964;7.982;2022-11-18T17:11:12;95753.41;;;17.19;63.91
48390;BME280;34643;47.964;7.982;2022-11-18T17:16:13;95760.53;;;17.17;64.00
48390;BME280;34643;47.964;7.982;2022-11-18T17:21:15;95760.53;;;17.17;63.86
48390;BME280;34643;47.964;7.982;2022-11-18T17:26:18;95760.00;;;17.14;63.85
48390;BME280;34643;47.964;7.982;2022-11-18T17:31:20;95764.38;;;17.13;63.87
48390;BME280;34643;47.964;7.982;2022-11-18T17:36:24;95768.91;;;17.11;63.75
48390;BME280;34643;47.964;7.982;2022-11-18T17:41:27;95778.66;;;17.09;63.89
48390;BME280;34643;47.964;7.982;2022-11-18T17:46:45;95780.44;;;17.08;64.04
48390;BME280;34643;47.964;7.982;2022-11-18T17:51:46;95781.53;;;17.06;63.84
48390;BME280;34643;47.964;7.982;2022-11-18T17:56:46;95783.16;;;17.07;63.67
48390;BME280;34643;47.964;7.982;2022-11-18T18:01:47;95781.28;;;17.09;63.66
48390;BME280;34643;47.964;7.982;2022-11-18T18:06:48;95791.28;;;17.14;63.68
48390;BME280;34643;47.964;7.982;2022-11-18T18:11:50;95798.41;;;17.21;63.52
48390;BME280;34643;47.964;7.982;2022-11-18T18:16:50;95791.00;;;17.26;63.59
48390;BME280;34643;47.964;7.982;2022-11-18T18:21:50;95798.41;;;17.31;63.40
48390;BME280;34643;47.964;7.982;2022-11-18T18:26:52;95809.66;;;17.32;63.36
48390;BME280;34643;47.964;7.982;2022-11-18T18:31:52;95821.75;;;17.33;63.36
48390;BME280;34643;47.964;7.982;2022-11-18T18:36:52;95818.19;;;17.34;63.65
48390;BME280;34643;47.964;7.982;2022-11-18T18:41:53;95814.63;;;17.35;63.45
48390;BME280;34643;47.964;7.982;2022-11-18T18:46:53;95821.63;;;17.34;63.49
48390;BME280;34643;47.964;7.982;2022-11-18T18:51:54;95830.94;;;17.37;63.49
48390;BME280;34643;47.964;7.982;2022-11-18T18:56:58;95830.13;;;17.36;63.68
48390;BME280;34643;47.964;7.982;2022-11-18T19:01:58;95824.91;;;17.36;63.70
48390;BME280;34643;47.964;7.982;2022-11-18T19:06:59;95821.19;;;17.39;63.61
48390;BME280;34643;47.964;7.982;2022-11-18T19:11:59;95820.38;;;17.38;63.56
48390;BME280;34643;47.964;7.982;2022-11-18T19:17:18;95829.88;;;17.39;63.71
48390;BME280;34643;47.964;7.982;2022-11-18T19:22:18;95825.47;;;17.40;63.47
48390;BME280;34643;47.964;7.982;2022-11-18T19:27:19;95828.06;;;17.40;63.52
48390;BME280;34643;47.964;7.982;2022-11-18T19:32:19;95828.06;;;17.40;63.60
48390;BME280;34643;47.964;7.982;2022-11-18T19:37:20;95826.28;;;17.40;63.39
48390;BME280;34643;47.964;7.982;2022-11-18T19:42:20;95815.03;;;17.40;63.68
48390;BME280;34643;47.964;7.982;2022-11-18T19:47:20;95821.06;;;17.40;63.68
48390;BME280;34643;47.964;7.982;2022-11-18T19:52:21;95825.47;;;17.40;63.61
48390;BME280;34643;47.964;7.982;2022-11-18T19:57:21;95823.53;;;17.42;63.58
48390;BME280;34643;47.964;7.982;2022-11-18T20:02:21;95829.56;;;17.42;63.69
48390;BME280;34643;47.964;7.982;2022-11-18T20:07:22;95820.00;;;17.43;63.67
48390;BME280;34643;47.964;7.982;2022-11-18T20:12:22;95830.13;;;17.65;64.34
48390;BME280;34643;47.964;7.982;2022-11-18T20:17:22;95822.69;;;17.71;64.58
48390;BME280;34643;47.964;7.982;2022-11-18T20:22:23;95825.84;;;17.74;65.03
48390;BME280;34643;47.964;7.982;2022-11-18T20:27:24;95824.22;;;17.73;65.19
48390;BME280;34643;47.964;7.982;2022-11-18T20:32:24;95833.13;;;17.80;65.30
48390;BME280;34643;47.964;7.982;2022-11-18T20:37:24;95841.25;;;17.77;65.06
48390;BME280;34643;47.964;7.982;2022-11-18T20:42:24;95846.59;;;17.76;65.17
48390;BME280;34643;47.964;7.982;2022-11-18T20:47:43;95841.50;;;17.74;65.24
48390;BME280;34643;47.964;7.982;2022-11-18T20:52:44;95842.63;;;17.72;65.41
48390;BME280;34643;47.964;7.982;2022-11-18T20:57:44;95847.72;;;17.73;65.28
48390;BME280;34643;47.964;7.982;2022-11-18T21:02:44;95850.31;;;17.73;65.36
48390;BME280;34643;47.964;7.982;2022-11-18T21:07:45;95851.28;;;17.72;65.39
48390;BME280;34643;47.964;7.982;2022-11-18T21:12:45;95844.25;;;17.73;65.47
48390;BME280;34643;47.964;7.982;2022-11-18T21:18:04;95851.13;;;17.74;65.33
48390;BME280;34643;47.964;7.982;2022-11-18T21:23:05;95856.09;;;17.77;65.53
48390;BME280;34643;47.964;7.982;2022-11-18T21:28:05;95854.84;;;17.81;65.44
48390;BME280;34643;47.964;7.982;2022-11-18T21:33:05;95858.13;;;17.83;65.57
48390;BME280;34643;47.964;7.982;2022-11-18T21:38:06;95865.16;;;17.82;65.43
48390;BME280;34643;47.964;7.982;2022-11-18T21:43:06;95859.91;;;17.82;65.58
48390;BME280;34643;47.964;7.982;2022-11-18T21:48:07;95868.56;;;17.83;65.33
48390;BME280;34643;47.964;7.982;2022-11-18T21:53:07;95866.78;;;17.83;65.86
48390;BME280;34643;47.964;7.982;2022-11-18T21:58:08;95867.63;;;17.84;65.89
48390;BME280;34643;47.964;7.982;2022-11-18T22:03:08;95865.16;;;17.82;66.17
48390;BME280;34643;47.964;7.982;2022-11-18T22:08:09;95864.03;;;17.85;65.93
48390;BME280;34643;47.964;7.982;2022-11-18T22:13:10;95864.19;;;17.74;66.49
48390;BME280;34643;47.964;7.982;2022-11-18T22:18:10;95870.78;;;17.68;66.54
48390;BME280;34643;47.964;7.982;2022-11-18T22:23:10;95876.13;;;17.66;66.39
48390;BME280;34643;47.964;7.982;2022-11-18T22:28:11;95869.25;;;17.65;66.47
48390;BME280;34643;47.964;7.982;2022-11-18T22:33:11;95865.03;;;17.64;66.65
48390;BME280;34643;47.964;7.982;2022-11-18T22:38:12;95848.69;;;17.62;66.62
48390;BME280;34643;47.964;7.982;2022-11-18T22:43:12;95871.19;;;17.63;66.69
48390;BME280;34643;47.964;7.982;2022-11-18T22:48:12;95863.50;;;17.62;66.47
48390;BME280;34643;47.964;7.982;2022-11-18T22:53:12;95870.50;;;17.61;66.50
48390;BME280;34643;47.964;7.982;2022-11-18T22:58:13;95868.84;;;17.60;66.50
48390;BME280;34643;47.964;7.982;2022-11-18T23:03:13;95871.63;;;17.59;66.59
48390;BME280;34643;47.964;7.982;2022-11-18T23:08:13;95875.03;;;17.59;66.49
48390;BME280;34643;47.964;7.982;2022-11-18T23:13:14;95878.59;;;17.58;66.63
48390;BME280;34643;47.964;7.982;2022-11-18T23:18:33;95883.81;;;17.58;66.51
48390;BME280;34643;47.964;7.982;2022-11-18T23:23:33;95888.22;;;17.58;66.42
48390;BME280;34643;47.964;7.982;2022-11-18T23:28:34;95883.81;;;17.58;66.39
48390;BME280;34643;47.964;7.982;2022-11-18T23:33:36;95886.44;;;17.58;66.24
48390;BME280;34643;47.964;7.982;2022-11-18T23:38:37;95884.66;;;17.59;66.28
48390;BME280;34643;47.964;7.982;2022-11-18T23:43:38;95893.31;;;17.59;66.29
48390;BME280;34643;47.964;7.982;2022-11-18T23:48:39;95886.44;;;17.58;66.47
48390;BME280;34643;47.964;7.982;2022-11-18T23:53:40;95881.22;;;17.58;66.28
48390;BME280;34643;47.964;7.982;2022-11-18T23:58:41;95875.31;;;17.56;66.27
